createdAt,value
2019-01-21T00:02:15.908Z,81.75
2019-01-21T00:04:48.874Z,82.02
2019-01-21T00:07:22.083Z,81.79
2019-01-21T00:09:55.804Z,81.79
2019-01-21T00:12:30.947Z,81.76
2019-01-21T00:15:04.455Z,81.69
2019-01-21T00:17:38.120Z,81.68
2019-01-21T00:20:10.934Z,81.39
2019-01-21T00:22:46.163Z,81.24
2019-01-21T00:25:19.708Z,80.97
2019-01-21T00:27:52.982Z,81.10
2019-01-21T00:30:25.777Z,81.00
2019-01-21T00:32:59.039Z,80.70
2019-01-21T00:35:41.467Z,80.47
2019-01-21T00:38:14.942Z,80.32
2019-01-21T00:40:48.454Z,80.83
2019-01-21T00:43:21.799Z,81.07
2019-01-21T00:45:56.201Z,81.04
2019-01-21T00:48:29.359Z,80.55
2019-01-21T00:51:01.200Z,80.83
2019-01-21T00:53:34.517Z,80.69
2019-01-21T00:56:08.100Z,80.82
2019-01-21T00:58:41.003Z,80.52
2019-01-21T01:01:14.066Z,80.23
2019-01-21T01:03:47.263Z,80.07
2019-01-21T01:06:20.911Z,80.01
2019-01-21T01:08:54.094Z,79.79
2019-01-21T01:11:27.461Z,79.88
2019-01-21T01:14:00.602Z,79.89
2019-01-21T01:16:32.921Z,79.78
2019-01-21T01:19:06.661Z,79.91
2019-01-21T01:21:39.853Z,80.44
2019-01-21T01:24:12.059Z,80.85
2019-01-21T01:26:45.374Z,80.72
2019-01-21T01:29:18.480Z,80.74
2019-01-21T01:31:51.707Z,80.83
2019-01-21T01:34:35.151Z,80.67
2019-01-21T01:37:09.785Z,80.52
2019-01-21T01:39:42.411Z,80.86
2019-01-21T01:42:15.873Z,81.26
2019-01-21T01:44:50.345Z,81.38
2019-01-21T01:47:23.485Z,81.41
2019-01-21T01:49:55.402Z,81.50
2019-01-21T01:52:28.977Z,81.55
2019-01-21T01:55:01.589Z,81.71
2019-01-21T01:57:37.213Z,81.58
2019-01-21T02:00:12.431Z,81.45
2019-01-21T02:02:45.727Z,81.42
2019-01-21T02:05:19.379Z,81.58
2019-01-21T02:07:52.667Z,81.64
2019-01-21T02:10:25.878Z,81.66
2019-01-21T02:12:59.339Z,81.80
2019-01-21T02:15:32.714Z,81.48
2019-01-21T02:18:05.468Z,81.37
2019-01-21T02:20:39.161Z,81.26
2019-01-21T02:23:17.455Z,81.22
2019-01-21T02:25:56.625Z,80.90
2019-01-21T02:28:52.572Z,80.83
2019-01-21T02:32:03.964Z,80.69
2019-01-21T02:34:48.678Z,81.07
2019-01-21T02:38:16.427Z,81.18
2019-01-21T02:41:06.963Z,81.39
2019-01-21T02:44:29.992Z,81.98
2019-01-21T02:47:28.529Z,81.97
2019-01-21T02:50:28.292Z,81.69
2019-01-21T02:53:33.724Z,81.61
2019-01-21T02:56:41.783Z,81.60
2019-01-21T02:59:44.640Z,81.57
2019-01-21T03:02:53.090Z,81.65
2019-01-21T03:05:50.082Z,81.75
2019-01-21T03:08:43.129Z,81.88
2019-01-21T03:11:39.892Z,81.92
2019-01-21T03:14:44.489Z,82.09
2019-01-21T03:18:07.801Z,82.16
2019-01-21T03:21:00.114Z,82.22
2019-01-21T03:24:07.150Z,82.15
2019-01-21T03:27:08.459Z,82.19
2019-01-21T03:30:24.331Z,82.33
2019-01-21T03:33:39.833Z,82.37
2019-01-21T03:36:25.701Z,82.48
2019-01-21T03:39:13.169Z,82.60
2019-01-21T03:42:00.359Z,82.53
2019-01-21T03:45:12.318Z,82.52
2019-01-21T03:48:01.268Z,82.59
2019-01-21T03:51:01.075Z,82.51
2019-01-21T03:53:46.128Z,82.72
2019-01-21T03:56:35.040Z,82.67
2019-01-21T03:59:48.875Z,82.57
2019-01-21T04:02:56.891Z,82.44
2019-01-21T04:05:59.873Z,82.33
2019-01-21T04:09:11.933Z,82.21
2019-01-21T04:12:19.287Z,82.10
2019-01-21T04:15:34.097Z,82.11
2019-01-21T04:18:52.828Z,82.05
2019-01-21T04:21:52.446Z,82.07
2019-01-21T04:25:00.336Z,81.86
2019-01-21T04:27:43.042Z,82.03
2019-01-21T04:30:49.858Z,81.96
2019-01-21T04:34:00.451Z,82.22
2019-01-21T04:36:46.649Z,82.27
2019-01-21T04:39:33.564Z,82.04
2019-01-21T04:42:40.225Z,82.15
2019-01-21T04:45:44.205Z,82.08
2019-01-21T04:48:52.289Z,81.84
2019-01-21T04:51:52.227Z,81.77
2019-01-21T04:55:07.385Z,81.50
2019-01-21T04:58:32.609Z,81.29
2019-01-21T05:01:47.478Z,81.06
2019-01-21T05:04:43.950Z,81.25
2019-01-21T05:08:03.130Z,80.94
2019-01-21T05:11:10.368Z,80.89
2019-01-21T05:14:20.832Z,80.54
2019-01-21T05:17:35.039Z,80.81
2019-01-21T05:20:39.955Z,80.86
2019-01-21T05:23:36.695Z,80.57
2019-01-21T05:26:48.050Z,80.24
2019-01-21T05:30:20.326Z,80.25
2019-01-21T05:33:22.495Z,80.77
2019-01-21T05:36:07.667Z,80.34
2019-01-21T05:38:54.055Z,80.09
2019-01-21T05:41:40.039Z,80.11
2019-01-21T05:44:26.577Z,79.46
2019-01-21T05:47:59.490Z,79.48
2019-01-21T05:51:00.749Z,79.55
2019-01-21T05:54:09.338Z,79.51
2019-01-21T05:57:19.859Z,79.31
2019-01-21T06:00:38.305Z,79.25
2019-01-21T06:03:36.576Z,79.18
2019-01-21T06:06:28.707Z,79.10
2019-01-21T06:09:38.796Z,78.88
2019-01-21T06:12:43.125Z,78.44
2019-01-21T06:15:45.184Z,78.53
2019-01-21T06:18:40.571Z,79.06
2019-01-21T06:21:58.249Z,79.23
2019-01-21T06:24:58.496Z,79.29
2019-01-21T06:28:02.656Z,79.89
2019-01-21T06:30:54.756Z,80.27
2019-01-21T06:33:55.311Z,80.54
2019-01-21T06:36:40.478Z,80.88
2019-01-21T06:39:42.829Z,80.91
2019-01-21T06:42:30.263Z,80.75
2019-01-21T06:45:56.919Z,80.94
2019-01-21T06:49:05.035Z,80.90
2019-01-21T06:52:26.194Z,79.74
2019-01-21T06:55:57.861Z,79.64
2019-01-21T06:59:07.171Z,79.73
2019-01-21T07:02:04.077Z,79.92
2019-01-21T07:05:38.884Z,80.20
2019-01-21T07:08:54.825Z,79.87
2019-01-21T07:11:54.210Z,79.95
2019-01-21T07:15:16.365Z,79.65
2019-01-21T07:18:16.247Z,79.53
2019-01-21T07:21:27.246Z,79.50
2019-01-21T07:24:28.078Z,79.51
2019-01-21T07:27:29.390Z,79.27
2019-01-21T07:31:04.373Z,78.98
2019-01-21T07:34:00.144Z,78.83
2019-01-21T07:36:54.511Z,78.54
2019-01-21T07:40:14.750Z,78.02
2019-01-21T07:43:23.076Z,78.16
2019-01-21T07:46:10.614Z,77.83
2019-01-21T07:49:21.195Z,77.01
2019-01-21T07:52:26.846Z,76.71
2019-01-21T07:55:36.976Z,76.61
2019-01-21T07:58:48.536Z,76.47
2019-01-21T08:01:48.284Z,76.24
2019-01-21T08:04:56.336Z,76.74
2019-01-21T08:07:41.468Z,76.72
2019-01-21T08:10:53.778Z,76.98
2019-01-21T08:13:54.668Z,76.47
2019-01-21T08:17:17.174Z,76.46
2019-01-21T08:20:19.402Z,76.30
2019-01-21T08:23:30.246Z,74.89
2019-01-21T08:26:33.540Z,74.84
2019-01-21T08:29:50.528Z,74.81
2019-01-21T08:33:06.039Z,75.12
2019-01-21T08:35:51.168Z,74.85
2019-01-21T08:38:53.444Z,74.43
2019-01-21T08:41:40.088Z,73.94
2019-01-21T08:45:04.596Z,74.03
2019-01-21T08:47:49.990Z,73.82
2019-01-21T08:50:36.368Z,74.25
2019-01-21T08:53:36.511Z,74.12
2019-01-21T08:56:33.871Z,74.20
2019-01-21T08:59:18.152Z,74.45
2019-01-21T09:02:32.658Z,74.08
2019-01-21T09:06:06.864Z,73.24
2019-01-21T09:09:20.038Z,74.33
2019-01-21T09:12:28.404Z,73.40
2019-01-21T09:15:47.003Z,73.72
2019-01-21T09:18:41.568Z,74.38
2019-01-21T09:21:53.822Z,73.65
2019-01-21T09:25:29.768Z,73.35
2019-01-21T09:28:50.116Z,73.26
2019-01-21T09:31:57.954Z,73.54
2019-01-21T09:35:26.229Z,73.92
2019-01-21T09:38:45.759Z,73.95
2019-01-21T09:41:33.347Z,73.42
2019-01-21T09:44:31.407Z,73.66
2019-01-21T09:47:05.961Z,73.40
2019-01-21T09:49:44.077Z,72.66
2019-01-21T09:52:21.749Z,72.81
2019-01-21T09:54:56.954Z,72.12
2019-01-21T09:57:30.301Z,71.64
2019-01-21T10:00:05.431Z,71.62
2019-01-21T10:02:59.316Z,71.36
2019-01-21T10:05:33.200Z,71.18
2019-01-21T10:08:38.296Z,71.78
2019-01-21T10:11:36.515Z,70.78
2019-01-21T10:14:52.899Z,70.79
2019-01-21T10:18:00.430Z,70.44
2019-01-21T10:21:13.458Z,70.98
2019-01-21T10:24:15.998Z,71.22
2019-01-21T10:27:13.260Z,71.04
2019-01-21T10:30:09.867Z,71.55
2019-01-21T10:33:35.569Z,70.82
2019-01-21T10:36:38.047Z,71.03
2019-01-21T10:39:24.098Z,70.14
2019-01-21T10:42:24.464Z,70.66
2019-01-21T10:45:21.018Z,71.06
2019-01-21T10:48:52.421Z,71.38
2019-01-21T10:52:07.844Z,70.52
2019-01-21T10:55:13.949Z,70.23
2019-01-21T10:58:36.512Z,70.54
2019-01-21T11:01:39.148Z,70.06
2019-01-21T11:04:38.094Z,70.55
2019-01-21T11:07:55.782Z,70.71
2019-01-21T11:11:00.527Z,70.54
2019-01-21T11:13:59.671Z,70.66
2019-01-21T11:16:48.539Z,69.90
2019-01-21T11:19:52.759Z,69.04
2019-01-21T11:23:02.901Z,68.82
2019-01-21T11:26:13.114Z,68.71
2019-01-21T11:29:12.899Z,69.15
2019-01-21T11:32:12.535Z,68.52
2019-01-21T11:35:38.539Z,69.75
2019-01-21T11:38:24.129Z,68.79
2019-01-21T11:41:14.951Z,68.77
2019-01-21T11:44:01.455Z,68.26
2019-01-21T11:46:47.745Z,67.34
2019-01-21T11:50:10.617Z,67.59
2019-01-21T11:52:55.165Z,66.50
2019-01-21T11:56:13.423Z,67.17
2019-01-21T11:58:57.541Z,67.65
2019-01-21T12:02:30.270Z,67.13
2019-01-21T12:05:48.619Z,67.29
2019-01-21T12:08:42.542Z,65.95
2019-01-21T12:12:05.479Z,65.84
2019-01-21T12:15:43.069Z,66.36
2019-01-21T12:18:24.839Z,67.03
2019-01-21T12:21:35.312Z,65.57
2019-01-21T12:24:32.013Z,65.85
2019-01-21T12:27:46.063Z,66.32
2019-01-21T12:30:45.508Z,66.86
2019-01-21T12:34:09.590Z,66.23
2019-01-21T12:37:28.684Z,66.62
2019-01-21T12:40:36.504Z,67.46
2019-01-21T12:43:46.326Z,68.13
2019-01-21T12:46:36.647Z,66.92
2019-01-21T12:49:40.462Z,66.85
2019-01-21T12:52:36.766Z,67.25
2019-01-21T12:55:47.810Z,67.25
2019-01-21T12:58:49.649Z,66.43
2019-01-21T13:01:58.333Z,66.45
2019-01-21T13:04:49.569Z,66.69
2019-01-21T13:08:09.138Z,66.90
2019-01-21T13:11:19.790Z,67.42
2019-01-21T13:14:25.667Z,68.30
2019-01-21T13:17:27.095Z,68.93
2019-01-21T13:20:42.033Z,68.11
2019-01-21T13:24:00.726Z,68.14
2019-01-21T13:27:16.427Z,68.02
2019-01-21T13:30:12.993Z,68.06
2019-01-21T13:33:24.095Z,67.81
2019-01-21T13:36:41.973Z,67.64
2019-01-21T13:39:51.620Z,68.17
2019-01-21T13:42:47.816Z,67.62
2019-01-21T13:46:04.518Z,67.85
2019-01-21T13:49:04.123Z,68.30
2019-01-21T13:52:37.001Z,67.77
2019-01-21T13:55:37.622Z,67.59
2019-01-21T13:58:53.634Z,67.75
2019-01-21T14:01:42.413Z,67.31
2019-01-21T14:05:14.488Z,68.03
2019-01-21T14:08:17.000Z,68.01
2019-01-21T14:11:28.195Z,68.56
2019-01-21T14:14:56.666Z,68.76
2019-01-21T14:18:26.032Z,69.31
2019-01-21T14:21:11.494Z,69.84
2019-01-21T14:24:24.321Z,70.01
2019-01-21T14:27:29.045Z,70.13
2019-01-21T14:30:16.380Z,70.67
2019-01-21T14:33:21.998Z,70.91
2019-01-21T14:36:21.005Z,70.84
2019-01-21T14:39:23.023Z,70.87
2019-01-21T14:42:38.911Z,71.05
2019-01-21T14:45:59.339Z,71.14
2019-01-21T14:49:04.804Z,71.03
2019-01-21T14:52:23.987Z,71.28
2019-01-21T14:55:35.658Z,71.32
2019-01-21T14:58:54.440Z,71.54
2019-01-21T15:01:51.662Z,71.19
2019-01-21T15:05:02.106Z,71.55
2019-01-21T15:08:14.032Z,71.61
2019-01-21T15:11:22.788Z,71.72
2019-01-21T15:14:32.955Z,71.69
2019-01-21T15:17:41.024Z,71.73
2019-01-21T15:20:44.166Z,71.92
2019-01-21T15:24:07.180Z,71.84
2019-01-21T15:26:54.454Z,71.99
2019-01-21T15:30:15.657Z,72.21
2019-01-21T15:33:22.601Z,72.35
2019-01-21T15:36:41.068Z,72.57
2019-01-21T15:39:26.473Z,72.79
2019-01-21T15:42:47.239Z,72.86
2019-01-21T15:45:57.815Z,72.86
2019-01-21T15:49:04.296Z,73.19
2019-01-21T15:52:21.206Z,73.51
2019-01-21T15:55:13.255Z,73.51
2019-01-21T15:57:53.639Z,74.85
2019-01-21T16:00:53.911Z,74.06
2019-01-21T16:04:01.927Z,73.90
2019-01-21T16:07:15.657Z,73.73
2019-01-21T16:10:18.025Z,73.57
2019-01-21T16:13:08.906Z,73.46
2019-01-21T16:16:17.563Z,73.85
2019-01-21T16:19:12.657Z,73.28
2019-01-21T16:22:40.499Z,73.48
2019-01-21T16:25:57.240Z,73.86
2019-01-21T16:29:08.415Z,73.60
2019-01-21T16:31:49.949Z,73.33
2019-01-21T16:34:58.511Z,73.22
2019-01-21T16:38:21.875Z,73.40
2019-01-21T16:41:08.249Z,73.19
2019-01-21T16:43:52.843Z,73.37
2019-01-21T16:46:26.839Z,73.79
2019-01-21T16:49:00.590Z,73.97
2019-01-21T16:51:34.749Z,73.61
2019-01-21T16:54:08.519Z,73.73
2019-01-21T16:56:42.693Z,73.42
2019-01-21T16:59:17.241Z,73.31
2019-01-21T17:01:52.193Z,73.23
2019-01-21T17:04:25.319Z,73.52
2019-01-21T17:06:58.853Z,73.56
2019-01-21T17:09:32.655Z,73.38
2019-01-21T17:12:06.495Z,73.78
2019-01-21T17:14:41.073Z,73.54
2019-01-21T17:17:14.698Z,73.33
2019-01-21T17:19:48.397Z,73.18
2019-01-21T17:22:22.017Z,73.06
2019-01-21T17:24:55.482Z,72.97
2019-01-21T17:27:28.841Z,72.85
2019-01-21T17:30:02.269Z,72.65
2019-01-21T17:32:35.833Z,72.39
2019-01-21T17:35:10.050Z,72.42
2019-01-21T17:37:43.753Z,72.35
2019-01-21T17:40:22.037Z,72.01
2019-01-21T17:42:56.393Z,72.04
2019-01-21T17:45:30.333Z,72.11
2019-01-21T17:48:04.243Z,72.10
2019-01-21T17:50:40.244Z,72.33
2019-01-21T17:53:14.718Z,72.65
2019-01-21T17:55:49.267Z,72.76
2019-01-21T17:58:23.086Z,72.85
2019-01-21T18:00:57.604Z,72.89
2019-01-21T18:03:34.482Z,72.78
2019-01-21T18:06:07.728Z,72.29
2019-01-21T18:08:40.623Z,72.31
2019-01-21T18:11:14.249Z,73.19
2019-01-21T18:13:49.204Z,74.77
2019-01-21T18:16:22.771Z,74.42
2019-01-21T18:18:56.361Z,75.05
2019-01-21T18:21:30.740Z,74.46
2019-01-21T18:24:05.113Z,74.27
2019-01-21T18:26:38.273Z,74.83
2019-01-21T18:29:11.723Z,75.94
2019-01-21T18:31:46.149Z,76.30
2019-01-21T18:34:20.132Z,75.45
2019-01-21T18:36:54.154Z,75.29
2019-01-21T18:39:41.050Z,75.13
2019-01-21T18:42:26.044Z,74.79
2019-01-21T18:45:10.322Z,74.84
2019-01-21T18:47:48.067Z,74.54
2019-01-21T18:50:21.696Z,74.82
2019-01-21T18:52:55.615Z,74.49
2019-01-21T18:55:29.424Z,75.44
2019-01-21T18:58:03.333Z,75.46
2019-01-21T19:00:37.497Z,76.16
2019-01-21T19:03:10.634Z,75.89
2019-01-21T19:05:43.959Z,76.41
2019-01-21T19:08:17.509Z,75.82
2019-01-21T19:10:51.327Z,75.96
2019-01-21T19:13:24.975Z,76.29
2019-01-21T19:15:58.551Z,76.06
2019-01-21T19:18:32.460Z,75.78
2019-01-21T19:21:06.587Z,75.52
2019-01-21T19:23:40.339Z,75.96
2019-01-21T19:26:14.041Z,75.63
2019-01-21T19:28:47.869Z,76.47
2019-01-21T19:31:22.133Z,76.46
2019-01-21T19:33:56.461Z,75.97
2019-01-21T19:36:29.950Z,75.60
2019-01-21T19:39:04.107Z,75.44
2019-01-21T19:41:43.733Z,75.40
2019-01-21T19:44:17.875Z,75.66
2019-01-21T19:46:51.466Z,76.34
2019-01-21T19:49:25.473Z,76.00
2019-01-21T19:52:00.384Z,75.96
2019-01-21T19:54:34.128Z,75.64
2019-01-21T19:57:07.801Z,75.60
2019-01-21T19:59:41.819Z,75.60
2019-01-21T20:02:15.963Z,75.52
2019-01-21T20:04:49.583Z,75.44
2019-01-21T20:07:28.434Z,75.00
2019-01-21T20:10:02.714Z,75.31
2019-01-21T20:12:36.330Z,75.60
2019-01-21T20:15:11.687Z,75.43
2019-01-21T20:17:46.364Z,75.16
2019-01-21T20:20:25.391Z,75.47
2019-01-21T20:22:58.926Z,75.42
2019-01-21T20:25:33.028Z,76.07
2019-01-21T20:28:07.103Z,75.76
2019-01-21T20:30:40.927Z,76.04
2019-01-21T20:33:15.145Z,75.68
2019-01-21T20:35:48.615Z,75.81
2019-01-21T20:38:22.230Z,76.29
2019-01-21T20:40:58.321Z,76.50
2019-01-21T20:43:31.810Z,76.42
2019-01-21T20:46:04.883Z,76.01
2019-01-21T20:48:37.865Z,75.73
2019-01-21T20:51:11.433Z,76.49
2019-01-21T20:53:45.215Z,78.35
2019-01-21T20:56:19.278Z,77.55
2019-01-21T20:58:53.112Z,77.20
2019-01-21T21:01:26.655Z,77.20
2019-01-21T21:04:00.489Z,77.16
2019-01-21T21:06:33.883Z,77.07
2019-01-21T21:09:10.129Z,76.99
2019-01-21T21:11:43.675Z,76.82
2019-01-21T21:14:17.557Z,76.60
2019-01-21T21:16:52.182Z,76.93
2019-01-21T21:19:25.957Z,76.76
2019-01-21T21:21:58.947Z,76.41
2019-01-21T21:24:32.670Z,76.20
2019-01-21T21:27:06.630Z,76.05
2019-01-21T21:29:40.781Z,76.48
2019-01-21T21:32:14.884Z,76.35
2019-01-21T21:34:48.744Z,76.20
2019-01-21T21:37:22.455Z,76.12
2019-01-21T21:39:56.849Z,76.34
2019-01-21T21:42:43.021Z,76.96
2019-01-21T21:45:24.846Z,77.49
2019-01-21T21:48:01.114Z,77.23
2019-01-21T21:50:35.249Z,77.25
2019-01-21T21:53:08.675Z,77.07
2019-01-21T21:55:43.085Z,76.88
2019-01-21T21:58:16.391Z,76.71
2019-01-21T22:00:49.945Z,76.63
2019-01-21T22:03:22.867Z,76.69
2019-01-21T22:05:56.315Z,76.62
2019-01-21T22:08:29.928Z,76.37
2019-01-21T22:11:03.472Z,76.21
2019-01-21T22:13:43.550Z,76.08
2019-01-21T22:16:17.084Z,76.12
2019-01-21T22:18:50.648Z,76.58
2019-01-21T22:21:24.298Z,76.58
2019-01-21T22:23:58.126Z,76.14
2019-01-21T22:26:31.961Z,76.18
2019-01-21T22:29:05.481Z,76.09
2019-01-21T22:31:38.864Z,76.10
2019-01-21T22:34:11.956Z,76.00
2019-01-21T22:36:45.630Z,75.96
2019-01-21T22:39:18.577Z,76.37
2019-01-21T22:42:05.142Z,76.19
2019-01-21T22:44:49.368Z,76.60
2019-01-21T22:47:31.469Z,76.85
2019-01-21T22:50:05.155Z,76.58
2019-01-21T22:52:41.957Z,76.53
2019-01-21T22:55:14.406Z,76.43
2019-01-21T22:57:48.977Z,76.24
2019-01-21T23:00:44.674Z,76.22
2019-01-21T23:03:18.639Z,76.19
2019-01-21T23:05:52.440Z,76.10
2019-01-21T23:08:26.059Z,75.87
2019-01-21T23:10:59.283Z,76.22
2019-01-21T23:13:30.907Z,76.05
2019-01-21T23:16:04.325Z,75.93
2019-01-21T23:18:37.399Z,76.12
2019-01-21T23:21:10.031Z,76.42
2019-01-21T23:23:43.605Z,76.42
2019-01-21T23:26:18.055Z,76.38
2019-01-21T23:28:51.619Z,76.43
2019-01-21T23:31:23.831Z,76.34
2019-01-21T23:33:57.091Z,75.79
2019-01-21T23:36:30.214Z,76.45
2019-01-21T23:39:05.137Z,76.61
2019-01-21T23:41:51.424Z,76.46
2019-01-21T23:44:37.734Z,76.45
2019-01-21T23:47:22.327Z,76.53
2019-01-21T23:50:04.374Z,76.48
2019-01-21T23:52:37.714Z,76.55
2019-01-21T23:55:10.688Z,76.53
2019-01-21T23:57:43.953Z,76.25
